sensor_id;sensor_type;location;lat;lon;timestamp;P1;durP1;ratioP1;P2;durP2;ratioP2
4389;SDS011;2209;48.982;8.406;2023-07-31T00:00:59;3.87;;;2.00;;
4389;SDS011;2209;48.982;8.406;2023-07-31T00:03:21;3.60;;;1.50;;
4389;SDS011;2209;48.982;8.406;2023-07-31T00:05:43;10.57;;;2.30;;
4389;SDS011;2209;48.982;8.406;2023-07-31T00:08:05;2.20;;;1.57;;
4389;SDS011;2209;48.982;8.406;2023-07-31T00:10:27;3.47;;;2.20;;
4389;SDS011;2209;48.982;8.406;2023-07-31T00:12:49;7.87;;;1.90;;
4389;SDS011;2209;48.982;8.406;2023-07-31T00:15:11;1.77;;;1.60;;
4389;SDS011;2209;48.982;8.406;2023-07-31T00:17:35;2.67;;;2.47;;
4389;SDS011;2209;48.982;8.406;2023-07-31T00:20:11;3.20;;;2.33;;
4389;SDS011;2209;48.982;8.406;2023-07-31T00:22:33;2.60;;;1.87;;
4389;SDS011;2209;48.982;8.406;2023-07-31T00:24:56;3.43;;;1.93;;
4389;SDS011;2209;48.982;8.406;2023-07-31T00:27:20;2.10;;;1.83;;
4389;SDS011;2209;48.982;8.406;2023-07-31T00:29:42;2.07;;;1.87;;
4389;SDS011;2209;48.982;8.406;2023-07-31T00:32:04;2.43;;;2.13;;
4389;SDS011;2209;48.982;8.406;2023-07-31T00:34:28;3.50;;;1.90;;
4389;SDS011;2209;48.982;8.406;2023-07-31T00:36:50;3.37;;;1.70;;
4389;SDS011;2209;48.982;8.406;2023-07-31T00:39:12;2.40;;;1.77;;
4389;SDS011;2209;48.982;8.406;2023-07-31T00:41:34;2.00;;;1.80;;
4389;SDS011;2209;48.982;8.406;2023-07-31T00:43:57;1.80;;;1.63;;
4389;SDS011;2209;48.982;8.406;2023-07-31T00:46:19;4.50;;;2.40;;
4389;SDS011;2209;48.982;8.406;2023-07-31T00:48:41;5.97;;;2.00;;
4389;SDS011;2209;48.982;8.406;2023-07-31T00:51:05;4.70;;;2.30;;
4389;SDS011;2209;48.982;8.406;2023-07-31T00:53:28;4.50;;;1.83;;
4389;SDS011;2209;48.982;8.406;2023-07-31T00:55:50;3.03;;;1.97;;
4389;SDS011;2209;48.982;8.406;2023-07-31T00:58:13;4.40;;;1.90;;
4389;SDS011;2209;48.982;8.406;2023-07-31T01:00:35;2.10;;;1.70;;
4389;SDS011;2209;48.982;8.406;2023-07-31T01:02:57;4.53;;;1.93;;
4389;SDS011;2209;48.982;8.406;2023-07-31T01:05:21;4.63;;;2.40;;
4389;SDS011;2209;48.982;8.406;2023-07-31T01:07:50;4.03;;;2.10;;
4389;SDS011;2209;48.982;8.406;2023-07-31T01:10:19;2.90;;;1.87;;
4389;SDS011;2209;48.982;8.406;2023-07-31T01:12:44;3.53;;;1.87;;
4389;SDS011;2209;48.982;8.406;2023-07-31T01:15:07;3.30;;;2.20;;
4389;SDS011;2209;48.982;8.406;2023-07-31T01:17:31;2.80;;;2.20;;
4389;SDS011;2209;48.982;8.406;2023-07-31T01:19:53;7.23;;;1.93;;
4389;SDS011;2209;48.982;8.406;2023-07-31T01:22:27;1.77;;;1.67;;
4389;SDS011;2209;48.982;8.406;2023-07-31T01:25:01;4.20;;;1.80;;
4389;SDS011;2209;48.982;8.406;2023-07-31T01:27:38;5.73;;;1.77;;
4389;SDS011;2209;48.982;8.406;2023-07-31T01:30:08;3.40;;;2.20;;
4389;SDS011;2209;48.982;8.406;2023-07-31T01:32:34;4.10;;;2.73;;
4389;SDS011;2209;48.982;8.406;2023-07-31T01:34:57;3.00;;;2.20;;
4389;SDS011;2209;48.982;8.406;2023-07-31T01:37:21;2.17;;;1.77;;
4389;SDS011;2209;48.982;8.406;2023-07-31T01:39:43;3.10;;;1.70;;
4389;SDS011;2209;48.982;8.406;2023-07-31T01:42:05;5.00;;;2.37;;
4389;SDS011;2209;48.982;8.406;2023-07-31T01:44:29;4.67;;;1.83;;
4389;SDS011;2209;48.982;8.406;2023-07-31T01:46:51;2.50;;;1.70;;
4389;SDS011;2209;48.982;8.406;2023-07-31T01:49:13;3.40;;;1.70;;
4389;SDS011;2209;48.982;8.406;2023-07-31T01:51:34;4.00;;;1.90;;
4389;SDS011;2209;48.982;8.406;2023-07-31T01:53:56;3.07;;;1.77;;
4389;SDS011;2209;48.982;8.406;2023-07-31T01:56:18;4.07;;;1.90;;
4389;SDS011;2209;48.982;8.406;2023-07-31T01:58:40;8.20;;;1.70;;
4389;SDS011;2209;48.982;8.406;2023-07-31T02:01:03;3.57;;;2.10;;
4389;SDS011;2209;48.982;8.406;2023-07-31T02:03:25;2.43;;;2.23;;
4389;SDS011;2209;48.982;8.406;2023-07-31T02:05:48;3.50;;;1.40;;
4389;SDS011;2209;48.982;8.406;2023-07-31T02:08:10;2.97;;;2.07;;
4389;SDS011;2209;48.982;8.406;2023-07-31T02:10:32;2.60;;;1.93;;
4389;SDS011;2209;48.982;8.406;2023-07-31T02:12:54;3.63;;;1.70;;
4389;SDS011;2209;48.982;8.406;2023-07-31T02:15:18;3.57;;;2.20;;
4389;SDS011;2209;48.982;8.406;2023-07-31T02:17:41;2.30;;;1.50;;
4389;SDS011;2209;48.982;8.406;2023-07-31T02:20:03;2.10;;;1.90;;
4389;SDS011;2209;48.982;8.406;2023-07-31T02:22:26;3.23;;;1.93;;
4389;SDS011;2209;48.982;8.406;2023-07-31T02:24:48;2.83;;;1.80;;
4389;SDS011;2209;48.982;8.406;2023-07-31T02:27:10;1.47;;;1.37;;
4389;SDS011;2209;48.982;8.406;2023-07-31T02:29:32;3.47;;;2.13;;
4389;SDS011;2209;48.982;8.406;2023-07-31T02:31:54;2.70;;;1.83;;
4389;SDS011;2209;48.982;8.406;2023-07-31T02:34:18;2.07;;;1.93;;
4389;SDS011;2209;48.982;8.406;2023-07-31T02:36:40;1.97;;;1.77;;
4389;SDS011;2209;48.982;8.406;2023-07-31T02:39:02;3.30;;;2.13;;
4389;SDS011;2209;48.982;8.406;2023-07-31T02:41:24;9.60;;;2.90;;
4389;SDS011;2209;48.982;8.406;2023-07-31T02:43:46;1.80;;;1.70;;
4389;SDS011;2209;48.982;8.406;2023-07-31T02:46:09;2.33;;;1.87;;
4389;SDS011;2209;48.982;8.406;2023-07-31T02:48:31;3.43;;;1.97;;
4389;SDS011;2209;48.982;8.406;2023-07-31T02:50:55;1.97;;;1.70;;
4389;SDS011;2209;48.982;8.406;2023-07-31T02:53:17;4.60;;;1.87;;
4389;SDS011;2209;48.982;8.406;2023-07-31T02:55:39;4.73;;;2.43;;
4389;SDS011;2209;48.982;8.406;2023-07-31T02:58:02;2.37;;;1.60;;
4389;SDS011;2209;48.982;8.406;2023-07-31T03:00:24;3.40;;;2.00;;
4389;SDS011;2209;48.982;8.406;2023-07-31T03:02:46;4.00;;;1.80;;
4389;SDS011;2209;48.982;8.406;2023-07-31T03:05:08;1.90;;;1.70;;
4389;SDS011;2209;48.982;8.406;2023-07-31T03:07:31;4.83;;;2.17;;
4389;SDS011;2209;48.982;8.406;2023-07-31T03:09:53;4.67;;;2.40;;
4389;SDS011;2209;48.982;8.406;2023-07-31T03:12:16;2.27;;;1.90;;
4389;SDS011;2209;48.982;8.406;2023-07-31T03:14:38;7.33;;;2.20;;
4389;SDS011;2209;48.982;8.406;2023-07-31T03:17:00;3.20;;;1.90;;
4389;SDS011;2209;48.982;8.406;2023-07-31T03:19:22;7.40;;;2.03;;
4389;SDS011;2209;48.982;8.406;2023-07-31T03:21:44;2.33;;;1.67;;
4389;SDS011;2209;48.982;8.406;2023-07-31T03:24:07;3.00;;;2.10;;
4389;SDS011;2209;48.982;8.406;2023-07-31T03:26:30;6.90;;;2.43;;
4389;SDS011;2209;48.982;8.406;2023-07-31T03:28:53;3.00;;;2.17;;
4389;SDS011;2209;48.982;8.406;2023-07-31T03:31:15;1.93;;;1.83;;
4389;SDS011;2209;48.982;8.406;2023-07-31T03:33:37;5.73;;;1.73;;
4389;SDS011;2209;48.982;8.406;2023-07-31T03:35:59;3.83;;;2.10;;
4389;SDS011;2209;48.982;8.406;2023-07-31T03:38:22;4.93;;;1.80;;
4389;SDS011;2209;48.982;8.406;2023-07-31T03:40:45;3.17;;;2.50;;
4389;SDS011;2209;48.982;8.406;2023-07-31T03:43:07;2.60;;;1.83;;
4389;SDS011;2209;48.982;8.406;2023-07-31T03:45:29;2.60;;;2.10;;
4389;SDS011;2209;48.982;8.406;2023-07-31T03:47:51;5.80;;;2.37;;
4389;SDS011;2209;48.982;8.406;2023-07-31T03:50:14;5.90;;;2.10;;
4389;SDS011;2209;48.982;8.406;2023-07-31T03:52:37;1.77;;;1.67;;
4389;SDS011;2209;48.982;8.406;2023-07-31T03:54:59;2.43;;;1.90;;
4389;SDS011;2209;48.982;8.406;2023-07-31T03:57:22;4.33;;;1.70;;
4389;SDS011;2209;48.982;8.406;2023-07-31T03:59:44;3.47;;;2.20;;
4389;SDS011;2209;48.982;8.406;2023-07-31T04:02:06;2.50;;;2.30;;
4389;SDS011;2209;48.982;8.406;2023-07-31T04:04:28;7.50;;;2.60;;
4389;SDS011;2209;48.982;8.406;2023-07-31T04:06:50;2.60;;;1.90;;
4389;SDS011;2209;48.982;8.406;2023-07-31T04:09:12;2.73;;;2.00;;
4389;SDS011;2209;48.982;8.406;2023-07-31T04:11:34;2.80;;;1.80;;
4389;SDS011;2209;48.982;8.406;2023-07-31T04:13:58;2.10;;;1.70;;
4389;SDS011;2209;48.982;8.406;2023-07-31T04:16:20;3.63;;;2.20;;
4389;SDS011;2209;48.982;8.406;2023-07-31T04:18:42;5.13;;;2.47;;
4389;SDS011;2209;48.982;8.406;2023-07-31T04:21:04;3.27;;;2.00;;
4389;SDS011;2209;48.982;8.406;2023-07-31T04:23:26;2.30;;;2.10;;
4389;SDS011;2209;48.982;8.406;2023-07-31T04:25:48;3.00;;;2.50;;
4389;SDS011;2209;48.982;8.406;2023-07-31T04:28:10;5.77;;;2.17;;
4389;SDS011;2209;48.982;8.406;2023-07-31T04:30:33;2.50;;;2.20;;
4389;SDS011;2209;48.982;8.406;2023-07-31T04:32:56;5.77;;;2.10;;
4389;SDS011;2209;48.982;8.406;2023-07-31T04:35:18;2.00;;;1.80;;
4389;SDS011;2209;48.982;8.406;2023-07-31T04:37:40;2.60;;;2.40;;
4389;SDS011;2209;48.982;8.406;2023-07-31T04:40:03;3.33;;;2.17;;
4389;SDS011;2209;48.982;8.406;2023-07-31T04:42:25;3.70;;;2.20;;
4389;SDS011;2209;48.982;8.406;2023-07-31T04:44:47;2.73;;;2.30;;
4389;SDS011;2209;48.982;8.406;2023-07-31T04:47:11;3.87;;;2.03;;
4389;SDS011;2209;48.982;8.406;2023-07-31T04:49:33;1.60;;;1.50;;
4389;SDS011;2209;48.982;8.406;2023-07-31T04:51:55;2.60;;;1.80;;
4389;SDS011;2209;48.982;8.406;2023-07-31T04:54:19;3.43;;;1.90;;
4389;SDS011;2209;48.982;8.406;2023-07-31T04:56:41;4.30;;;2.03;;
4389;SDS011;2209;48.982;8.406;2023-07-31T04:59:05;2.63;;;2.20;;
4389;SDS011;2209;48.982;8.406;2023-07-31T05:01:27;2.67;;;1.80;;
4389;SDS011;2209;48.982;8.406;2023-07-31T05:03:50;1.97;;;1.77;;
4389;SDS011;2209;48.982;8.406;2023-07-31T05:06:12;4.20;;;2.10;;
4389;SDS011;2209;48.982;8.406;2023-07-31T05:08:35;4.40;;;1.63;;
4389;SDS011;2209;48.982;8.406;2023-07-31T05:10:57;3.30;;;1.73;;
4389;SDS011;2209;48.982;8.406;2023-07-31T05:13:19;2.03;;;1.87;;
4389;SDS011;2209;48.982;8.406;2023-07-31T05:15:41;2.87;;;2.30;;
4389;SDS011;2209;48.982;8.406;2023-07-31T05:18:03;4.57;;;2.00;;
4389;SDS011;2209;48.982;8.406;2023-07-31T05:20:27;2.00;;;1.70;;
4389;SDS011;2209;48.982;8.406;2023-07-31T05:22:50;1.90;;;1.70;;
4389;SDS011;2209;48.982;8.406;2023-07-31T05:25:12;5.07;;;1.77;;
4389;SDS011;2209;48.982;8.406;2023-07-31T05:27:34;2.83;;;1.90;;
4389;SDS011;2209;48.982;8.406;2023-07-31T05:29:57;2.20;;;1.90;;
4389;SDS011;2209;48.982;8.406;2023-07-31T05:32:19;2.80;;;2.20;;
4389;SDS011;2209;48.982;8.406;2023-07-31T05:34:41;4.13;;;2.07;;
4389;SDS011;2209;48.982;8.406;2023-07-31T05:37:04;5.90;;;2.40;;
4389;SDS011;2209;48.982;8.406;2023-07-31T05:39:27;3.17;;;2.20;;
4389;SDS011;2209;48.982;8.406;2023-07-31T05:41:49;3.80;;;2.43;;
4389;SDS011;2209;48.982;8.406;2023-07-31T05:44:11;4.50;;;2.47;;
4389;SDS011;2209;48.982;8.406;2023-07-31T05:46:33;4.70;;;2.90;;
4389;SDS011;2209;48.982;8.406;2023-07-31T05:48:55;2.23;;;1.90;;
4389;SDS011;2209;48.982;8.406;2023-07-31T05:51:17;2.60;;;2.00;;
4389;SDS011;2209;48.982;8.406;2023-07-31T05:53:41;2.23;;;2.03;;
4389;SDS011;2209;48.982;8.406;2023-07-31T05:56:04;3.30;;;2.27;;
4389;SDS011;2209;48.982;8.406;2023-07-31T05:58:26;4.90;;;2.13;;
4389;SDS011;2209;48.982;8.406;2023-07-31T06:00:48;3.10;;;2.90;;
4389;SDS011;2209;48.982;8.406;2023-07-31T06:03:10;3.37;;;1.93;;
4389;SDS011;2209;48.982;8.406;2023-07-31T06:05:32;6.00;;;2.40;;
4389;SDS011;2209;48.982;8.406;2023-07-31T06:07:54;3.47;;;2.00;;
4389;SDS011;2209;48.982;8.406;2023-07-31T06:10:18;3.10;;;2.40;;
4389;SDS011;2209;48.982;8.406;2023-07-31T06:12:42;6.73;;;2.43;;
4389;SDS011;2209;48.982;8.406;2023-07-31T06:15:05;2.30;;;2.10;;
4389;SDS011;2209;48.982;8.406;2023-07-31T06:17:27;2.90;;;1.80;;
4389;SDS011;2209;48.982;8.406;2023-07-31T06:19:54;2.77;;;2.20;;
4389;SDS011;2209;48.982;8.406;2023-07-31T06:22:17;2.83;;;2.00;;
4389;SDS011;2209;48.982;8.406;2023-07-31T06:24:43;6.47;;;2.33;;
4389;SDS011;2209;48.982;8.406;2023-07-31T06:29:45;3.00;;;2.07;;
4389;SDS011;2209;48.982;8.406;2023-07-31T06:32:08;2.40;;;2.20;;
4389;SDS011;2209;48.982;8.406;2023-07-31T06:34:30;3.83;;;1.80;;
4389;SDS011;2209;48.982;8.406;2023-07-31T06:36:52;4.43;;;2.10;;
4389;SDS011;2209;48.982;8.406;2023-07-31T06:39:14;2.67;;;1.77;;
4389;SDS011;2209;48.982;8.406;2023-07-31T06:41:37;3.40;;;2.30;;
4389;SDS011;2209;48.982;8.406;2023-07-31T06:44:00;2.97;;;2.30;;
4389;SDS011;2209;48.982;8.406;2023-07-31T06:46:23;7.40;;;2.57;;
4389;SDS011;2209;48.982;8.406;2023-07-31T06:48:45;5.73;;;2.80;;
4389;SDS011;2209;48.982;8.406;2023-07-31T06:51:07;2.33;;;1.77;;
4389;SDS011;2209;48.982;8.406;2023-07-31T06:53:29;5.03;;;2.10;;
4389;SDS011;2209;48.982;8.406;2023-07-31T06:55:51;3.50;;;2.03;;
4389;SDS011;2209;48.982;8.406;2023-07-31T06:58:13;2.40;;;1.87;;
4389;SDS011;2209;48.982;8.406;2023-07-31T07:00:36;8.97;;;2.33;;
4389;SDS011;2209;48.982;8.406;2023-07-31T07:02:58;3.97;;;2.00;;
4389;SDS011;2209;48.982;8.406;2023-07-31T07:05:20;5.00;;;1.90;;
4389;SDS011;2209;48.982;8.406;2023-07-31T07:07:43;2.77;;;2.57;;
4389;SDS011;2209;48.982;8.406;2023-07-31T07:10:06;3.67;;;2.30;;
4389;SDS011;2209;48.982;8.406;2023-07-31T07:12:29;9.03;;;2.10;;
4389;SDS011;2209;48.982;8.406;2023-07-31T07:14:52;2.50;;;1.70;;
4389;SDS011;2209;48.982;8.406;2023-07-31T07:17:16;4.10;;;2.27;;
4389;SDS011;2209;48.982;8.406;2023-07-31T07:19:39;2.00;;;1.80;;
4389;SDS011;2209;48.982;8.406;2023-07-31T07:22:02;2.63;;;2.07;;
4389;SDS011;2209;48.982;8.406;2023-07-31T07:24:24;3.40;;;2.00;;
4389;SDS011;2209;48.982;8.406;2023-07-31T07:26:46;2.70;;;1.93;;
4389;SDS011;2209;48.982;8.406;2023-07-31T07:29:08;4.87;;;2.50;;
4389;SDS011;2209;48.982;8.406;2023-07-31T07:31:31;4.67;;;2.67;;
4389;SDS011;2209;48.982;8.406;2023-07-31T07:33:54;3.70;;;2.10;;
4389;SDS011;2209;48.982;8.406;2023-07-31T07:36:30;5.40;;;2.30;;
4389;SDS011;2209;48.982;8.406;2023-07-31T07:39:08;6.47;;;2.53;;
4389;SDS011;2209;48.982;8.406;2023-07-31T07:41:32;5.93;;;2.43;;
4389;SDS011;2209;48.982;8.406;2023-07-31T07:43:54;2.17;;;2.03;;
4389;SDS011;2209;48.982;8.406;2023-07-31T07:46:16;3.70;;;2.00;;
4389;SDS011;2209;48.982;8.406;2023-07-31T07:48:38;3.50;;;2.37;;
4389;SDS011;2209;48.982;8.406;2023-07-31T07:51:01;2.87;;;1.97;;
4389;SDS011;2209;48.982;8.406;2023-07-31T07:53:23;5.63;;;2.27;;
4389;SDS011;2209;48.982;8.406;2023-07-31T07:55:45;3.83;;;2.13;;
4389;SDS011;2209;48.982;8.406;2023-07-31T07:58:08;10.37;;;2.53;;
4389;SDS011;2209;48.982;8.406;2023-07-31T08:00:30;6.20;;;2.50;;
4389;SDS011;2209;48.982;8.406;2023-07-31T08:02:52;3.90;;;2.33;;
4389;SDS011;2209;48.982;8.406;2023-07-31T08:05:14;3.37;;;1.90;;
4389;SDS011;2209;48.982;8.406;2023-07-31T08:07:39;4.60;;;1.87;;
4389;SDS011;2209;48.982;8.406;2023-07-31T08:10:01;4.73;;;1.80;;
4389;SDS011;2209;48.982;8.406;2023-07-31T08:12:23;7.67;;;2.07;;
4389;SDS011;2209;48.982;8.406;2023-07-31T08:14:45;3.70;;;2.40;;
4389;SDS011;2209;48.982;8.406;2023-07-31T08:17:07;4.97;;;2.47;;
4389;SDS011;2209;48.982;8.406;2023-07-31T08:19:30;5.13;;;2.70;;
4389;SDS011;2209;48.982;8.406;2023-07-31T08:21:52;3.00;;;2.10;;
4389;SDS011;2209;48.982;8.406;2023-07-31T08:24:16;5.67;;;2.60;;
4389;SDS011;2209;48.982;8.406;2023-07-31T08:26:38;2.50;;;2.30;;
4389;SDS011;2209;48.982;8.406;2023-07-31T08:29:00;3.17;;;2.60;;
4389;SDS011;2209;48.982;8.406;2023-07-31T08:31:22;5.33;;;2.60;;
4389;SDS011;2209;48.982;8.406;2023-07-31T08:33:45;3.77;;;2.17;;
4389;SDS011;2209;48.982;8.406;2023-07-31T08:36:10;3.20;;;2.50;;
4389;SDS011;2209;48.982;8.406;2023-07-31T08:38:32;3.57;;;2.87;;
4389;SDS011;2209;48.982;8.406;2023-07-31T08:40:57;3.97;;;2.23;;
4389;SDS011;2209;48.982;8.406;2023-07-31T08:43:19;6.20;;;2.20;;
4389;SDS011;2209;48.982;8.406;2023-07-31T08:45:43;9.20;;;3.27;;
4389;SDS011;2209;48.982;8.406;2023-07-31T08:48:06;4.63;;;2.63;;
4389;SDS011;2209;48.982;8.406;2023-07-31T08:50:33;3.53;;;2.40;;
4389;SDS011;2209;48.982;8.406;2023-07-31T08:53:01;2.80;;;1.97;;
4389;SDS011;2209;48.982;8.406;2023-07-31T08:55:24;8.47;;;3.20;;
4389;SDS011;2209;48.982;8.406;2023-07-31T08:57:48;3.70;;;2.83;;
4389;SDS011;2209;48.982;8.406;2023-07-31T09:00:13;3.40;;;2.40;;
4389;SDS011;2209;48.982;8.406;2023-07-31T09:02:37;6.80;;;3.27;;
4389;SDS011;2209;48.982;8.406;2023-07-31T09:05:02;3.63;;;2.00;;
4389;SDS011;2209;48.982;8.406;2023-07-31T09:07:26;7.50;;;2.40;;
4389;SDS011;2209;48.982;8.406;2023-07-31T09:09:52;5.27;;;2.70;;
4389;SDS011;2209;48.982;8.406;2023-07-31T09:12:28;9.33;;;3.00;;
4389;SDS011;2209;48.982;8.406;2023-07-31T09:14:52;2.47;;;2.07;;
4389;SDS011;2209;48.982;8.406;2023-07-31T09:17:28;2.73;;;2.40;;
4389;SDS011;2209;48.982;8.406;2023-07-31T09:19:54;4.30;;;2.93;;
4389;SDS011;2209;48.982;8.406;2023-07-31T09:22:16;6.00;;;2.70;;
4389;SDS011;2209;48.982;8.406;2023-07-31T09:24:38;7.53;;;2.20;;
4389;SDS011;2209;48.982;8.406;2023-07-31T09:27:15;6.30;;;2.63;;
4389;SDS011;2209;48.982;8.406;2023-07-31T09:29:37;8.70;;;3.23;;
4389;SDS011;2209;48.982;8.406;2023-07-31T09:32:00;3.33;;;3.03;;
4389;SDS011;2209;48.982;8.406;2023-07-31T09:34:28;6.70;;;3.10;;
4389;SDS011;2209;48.982;8.406;2023-07-31T09:36:51;6.53;;;4.07;;
4389;SDS011;2209;48.982;8.406;2023-07-31T09:39:14;6.77;;;3.10;;
4389;SDS011;2209;48.982;8.406;2023-07-31T09:41:41;4.83;;;2.60;;
4389;SDS011;2209;48.982;8.406;2023-07-31T09:44:05;4.47;;;3.20;;
4389;SDS011;2209;48.982;8.406;2023-07-31T09:46:27;5.57;;;2.27;;
4389;SDS011;2209;48.982;8.406;2023-07-31T09:48:53;2.20;;;2.00;;
4389;SDS011;2209;48.982;8.406;2023-07-31T09:51:25;5.00;;;2.93;;
4389;SDS011;2209;48.982;8.406;2023-07-31T09:53:49;2.80;;;2.33;;
4389;SDS011;2209;48.982;8.406;2023-07-31T09:56:13;6.10;;;3.07;;
4389;SDS011;2209;48.982;8.406;2023-07-31T09:58:36;3.90;;;2.40;;
4389;SDS011;2209;48.982;8.406;2023-07-31T10:01:00;5.07;;;2.37;;
4389;SDS011;2209;48.982;8.406;2023-07-31T10:03:25;4.10;;;2.60;;
4389;SDS011;2209;48.982;8.406;2023-07-31T10:05:50;4.77;;;2.80;;
4389;SDS011;2209;48.982;8.406;2023-07-31T10:08:15;7.50;;;2.47;;
4389;SDS011;2209;48.982;8.406;2023-07-31T10:10:43;4.87;;;3.00;;
4389;SDS011;2209;48.982;8.406;2023-07-31T10:13:08;8.00;;;2.93;;
4389;SDS011;2209;48.982;8.406;2023-07-31T10:15:30;15.33;;;3.03;;
4389;SDS011;2209;48.982;8.406;2023-07-31T10:17:54;8.27;;;3.10;;
4389;SDS011;2209;48.982;8.406;2023-07-31T10:20:17;3.30;;;3.00;;
4389;SDS011;2209;48.982;8.406;2023-07-31T10:22:40;8.10;;;3.60;;
4389;SDS011;2209;48.982;8.406;2023-07-31T10:25:03;6.43;;;2.30;;
4389;SDS011;2209;48.982;8.406;2023-07-31T10:27:29;3.30;;;2.37;;
4389;SDS011;2209;48.982;8.406;2023-07-31T10:29:51;4.00;;;2.77;;
4389;SDS011;2209;48.982;8.406;2023-07-31T10:32:14;4.73;;;2.97;;
4389;SDS011;2209;48.982;8.406;2023-07-31T10:34:38;9.90;;;3.10;;
4389;SDS011;2209;48.982;8.406;2023-07-31T10:39:45;4.33;;;3.00;;
4389;SDS011;2209;48.982;8.406;2023-07-31T10:42:20;7.57;;;2.90;;
4389;SDS011;2209;48.982;8.406;2023-07-31T10:44:49;3.80;;;2.67;;
4389;SDS011;2209;48.982;8.406;2023-07-31T10:47:14;5.90;;;2.60;;
4389;SDS011;2209;48.982;8.406;2023-07-31T10:49:36;4.20;;;2.60;;
4389;SDS011;2209;48.982;8.406;2023-07-31T10:52:02;6.20;;;2.77;;
4389;SDS011;2209;48.982;8.406;2023-07-31T10:54:25;9.13;;;2.80;;
4389;SDS011;2209;48.982;8.406;2023-07-31T10:56:51;4.37;;;3.90;;
4389;SDS011;2209;48.982;8.406;2023-07-31T10:59:13;4.33;;;2.97;;
4389;SDS011;2209;48.982;8.406;2023-07-31T11:01:49;4.20;;;2.87;;
4389;SDS011;2209;48.982;8.406;2023-07-31T11:04:12;3.87;;;2.93;;
4389;SDS011;2209;48.982;8.406;2023-07-31T11:06:34;4.20;;;2.60;;
4389;SDS011;2209;48.982;8.406;2023-07-31T11:08:58;2.67;;;2.47;;
4389;SDS011;2209;48.982;8.406;2023-07-31T11:11:20;4.67;;;2.70;;
4389;SDS011;2209;48.982;8.406;2023-07-31T11:13:44;4.10;;;2.70;;
4389;SDS011;2209;48.982;8.406;2023-07-31T11:16:10;6.57;;;2.83;;
4389;SDS011;2209;48.982;8.406;2023-07-31T11:18:33;4.73;;;2.73;;
4389;SDS011;2209;48.982;8.406;2023-07-31T11:20:55;6.57;;;3.23;;
4389;SDS011;2209;48.982;8.406;2023-07-31T11:23:17;8.53;;;3.50;;
4389;SDS011;2209;48.982;8.406;2023-07-31T11:25:42;4.17;;;2.33;;
4389;SDS011;2209;48.982;8.406;2023-07-31T11:28:05;4.23;;;2.57;;
4389;SDS011;2209;48.982;8.406;2023-07-31T11:30:30;6.33;;;2.73;;
4389;SDS011;2209;48.982;8.406;2023-07-31T11:32:52;5.20;;;3.23;;
4389;SDS011;2209;48.982;8.406;2023-07-31T11:35:15;6.37;;;3.10;;
4389;SDS011;2209;48.982;8.406;2023-07-31T11:37:38;4.60;;;2.97;;
4389;SDS011;2209;48.982;8.406;2023-07-31T11:40:01;5.40;;;3.00;;
4389;SDS011;2209;48.982;8.406;2023-07-31T11:42:24;5.13;;;2.90;;
4389;SDS011;2209;48.982;8.406;2023-07-31T11:44:46;4.17;;;2.90;;
4389;SDS011;2209;48.982;8.406;2023-07-31T11:47:09;7.27;;;3.10;;
4389;SDS011;2209;48.982;8.406;2023-07-31T11:49:32;10.20;;;3.23;;
4389;SDS011;2209;48.982;8.406;2023-07-31T11:51:58;2.57;;;2.37;;
4389;SDS011;2209;48.982;8.406;2023-07-31T11:54:20;5.30;;;2.90;;
4389;SDS011;2209;48.982;8.406;2023-07-31T11:56:43;5.10;;;2.93;;
4389;SDS011;2209;48.982;8.406;2023-07-31T11:59:05;4.10;;;2.50;;
4389;SDS011;2209;48.982;8.406;2023-07-31T12:01:30;3.43;;;3.10;;
4389;SDS011;2209;48.982;8.406;2023-07-31T12:03:54;6.17;;;3.43;;
4389;SDS011;2209;48.982;8.406;2023-07-31T12:06:17;5.40;;;3.67;;
4389;SDS011;2209;48.982;8.406;2023-07-31T12:08:41;7.10;;;2.77;;
4389;SDS011;2209;48.982;8.406;2023-07-31T12:11:03;4.13;;;2.33;;
4389;SDS011;2209;48.982;8.406;2023-07-31T12:13:27;5.73;;;2.93;;
4389;SDS011;2209;48.982;8.406;2023-07-31T12:15:53;5.50;;;2.80;;
4389;SDS011;2209;48.982;8.406;2023-07-31T12:18:18;2.83;;;2.63;;
4389;SDS011;2209;48.982;8.406;2023-07-31T12:20:43;5.20;;;3.17;;
4389;SDS011;2209;48.982;8.406;2023-07-31T12:23:07;4.23;;;2.40;;
4389;SDS011;2209;48.982;8.406;2023-07-31T12:25:35;5.90;;;3.30;;
4389;SDS011;2209;48.982;8.406;2023-07-31T12:27:57;3.33;;;2.20;;
4389;SDS011;2209;48.982;8.406;2023-07-31T12:30:28;9.30;;;3.07;;
4389;SDS011;2209;48.982;8.406;2023-07-31T12:32:50;5.77;;;2.90;;
4389;SDS011;2209;48.982;8.406;2023-07-31T12:35:12;4.90;;;2.57;;
4389;SDS011;2209;48.982;8.406;2023-07-31T12:37:36;4.70;;;3.40;;
4389;SDS011;2209;48.982;8.406;2023-07-31T12:39:59;3.17;;;2.87;;
4389;SDS011;2209;48.982;8.406;2023-07-31T12:42:24;4.53;;;3.10;;
4389;SDS011;2209;48.982;8.406;2023-07-31T12:44:48;8.07;;;3.33;;
4389;SDS011;2209;48.982;8.406;2023-07-31T12:47:10;4.87;;;3.00;;
4389;SDS011;2209;48.982;8.406;2023-07-31T12:49:32;5.40;;;2.90;;
4389;SDS011;2209;48.982;8.406;2023-07-31T12:51:54;6.83;;;2.43;;
4389;SDS011;2209;48.982;8.406;2023-07-31T12:54:18;2.83;;;2.27;;
4389;SDS011;2209;48.982;8.406;2023-07-31T12:56:40;5.20;;;3.10;;
4389;SDS011;2209;48.982;8.406;2023-07-31T12:59:02;3.60;;;2.30;;
4389;SDS011;2209;48.982;8.406;2023-07-31T13:01:24;5.53;;;2.67;;
4389;SDS011;2209;48.982;8.406;2023-07-31T13:03:48;4.27;;;2.90;;
4389;SDS011;2209;48.982;8.406;2023-07-31T13:06:11;3.10;;;2.90;;
4389;SDS011;2209;48.982;8.406;2023-07-31T13:08:39;6.07;;;2.90;;
4389;SDS011;2209;48.982;8.406;2023-07-31T13:11:02;4.57;;;2.90;;
4389;SDS011;2209;48.982;8.406;2023-07-31T13:13:24;4.20;;;2.90;;
4389;SDS011;2209;48.982;8.406;2023-07-31T13:15:49;7.90;;;2.50;;
4389;SDS011;2209;48.982;8.406;2023-07-31T13:18:11;5.93;;;2.47;;
4389;SDS011;2209;48.982;8.406;2023-07-31T13:20:33;5.07;;;3.03;;
4389;SDS011;2209;48.982;8.406;2023-07-31T13:22:56;6.30;;;3.27;;
4389;SDS011;2209;48.982;8.406;2023-07-31T13:25:21;5.00;;;2.50;;
4389;SDS011;2209;48.982;8.406;2023-07-31T13:27:44;5.83;;;3.03;;
4389;SDS011;2209;48.982;8.406;2023-07-31T13:30:07;3.90;;;3.50;;
4389;SDS011;2209;48.982;8.406;2023-07-31T13:32:29;5.30;;;3.20;;
4389;SDS011;2209;48.982;8.406;2023-07-31T13:34:52;3.43;;;2.70;;
4389;SDS011;2209;48.982;8.406;2023-07-31T13:37:14;4.60;;;2.40;;
4389;SDS011;2209;48.982;8.406;2023-07-31T13:39:36;8.17;;;2.27;;
4389;SDS011;2209;48.982;8.406;2023-07-31T13:41:58;3.00;;;2.80;;
4389;SDS011;2209;48.982;8.406;2023-07-31T13:44:22;4.80;;;2.83;;
4389;SDS011;2209;48.982;8.406;2023-07-31T13:46:44;6.40;;;2.93;;
4389;SDS011;2209;48.982;8.406;2023-07-31T13:49:06;8.50;;;2.97;;
4389;SDS011;2209;48.982;8.406;2023-07-31T13:51:28;8.93;;;3.17;;
4389;SDS011;2209;48.982;8.406;2023-07-31T13:53:50;3.13;;;2.87;;
4389;SDS011;2209;48.982;8.406;2023-07-31T13:56:12;6.13;;;2.07;;
4389;SDS011;2209;48.982;8.406;2023-07-31T13:58:34;2.37;;;2.00;;
4389;SDS011;2209;48.982;8.406;2023-07-31T14:01:00;4.10;;;2.87;;
4389;SDS011;2209;48.982;8.406;2023-07-31T14:03:27;5.27;;;2.67;;
4389;SDS011;2209;48.982;8.406;2023-07-31T14:05:49;5.13;;;2.63;;
4389;SDS011;2209;48.982;8.406;2023-07-31T14:08:13;3.70;;;2.83;;
4389;SDS011;2209;48.982;8.406;2023-07-31T14:10:35;3.70;;;3.07;;
4389;SDS011;2209;48.982;8.406;2023-07-31T14:12:57;4.27;;;3.10;;
4389;SDS011;2209;48.982;8.406;2023-07-31T14:15:19;6.07;;;3.30;;
4389;SDS011;2209;48.982;8.406;2023-07-31T14:17:43;6.13;;;2.73;;
4389;SDS011;2209;48.982;8.406;2023-07-31T14:20:05;4.90;;;3.20;;
4389;SDS011;2209;48.982;8.406;2023-07-31T14:22:28;4.50;;;3.00;;
4389;SDS011;2209;48.982;8.406;2023-07-31T14:24:52;5.43;;;2.90;;
4389;SDS011;2209;48.982;8.406;2023-07-31T14:27:14;3.30;;;2.70;;
4389;SDS011;2209;48.982;8.406;2023-07-31T14:29:41;3.47;;;2.50;;
4389;SDS011;2209;48.982;8.406;2023-07-31T14:32:03;2.60;;;2.40;;
4389;SDS011;2209;48.982;8.406;2023-07-31T14:34:33;5.50;;;3.40;;
4389;SDS011;2209;48.982;8.406;2023-07-31T14:36:55;4.90;;;3.00;;
4389;SDS011;2209;48.982;8.406;2023-07-31T14:39:17;5.90;;;2.40;;
4389;SDS011;2209;48.982;8.406;2023-07-31T14:41:39;3.93;;;2.70;;
4389;SDS011;2209;48.982;8.406;2023-07-31T14:44:02;5.17;;;2.47;;
4389;SDS011;2209;48.982;8.406;2023-07-31T14:46:24;6.30;;;2.77;;
4389;SDS011;2209;48.982;8.406;2023-07-31T14:48:46;3.90;;;2.30;;
4389;SDS011;2209;48.982;8.406;2023-07-31T14:51:10;5.93;;;3.13;;
4389;SDS011;2209;48.982;8.406;2023-07-31T14:53:32;4.07;;;3.13;;
4389;SDS011;2209;48.982;8.406;2023-07-31T14:55:55;4.50;;;2.33;;